Time;durP1;ratioP1;P1;durP2;ratioP2;P2;SDS_P1;SDS_P2;PMS_P1;PMS_P2;Temp;Humidity;BMP_temperature;BMP_pressure;BME280_temperature;BME280_humidity;BME280_pressure;Samples;Min_cycle;Max_cycle;Signal;HPM_P1;HPM_P2
2023/12/16 00:02:41;;;;;;;28.50;12.40;;;;;;;4.39;100.00;102159.45;110135;1280;22088;-74
2023/12/16 00:05:32;;;;;;;28.70;9.60;;;;;;;4.39;100.00;102157.31;110177;1271;22104;-76
2023/12/16 00:08:23;;;;;;;30.30;10.70;;;;;;;4.38;100.00;102153.77;110185;1270;22243;-75
2023/12/16 00:11:15;;;;;;;30.50;12.70;;;;;;;4.39;100.00;102156.13;110172;1265;22750;-75
2023/12/16 00:14:05;;;;;;;29.10;10.40;;;;;;;4.40;100.00;102157.31;110191;1280;23045;-78
2023/12/16 00:16:56;;;;;;;26.20;9.60;;;;;;;4.40;100.00;102161.91;110180;1280;22378;-75
2023/12/16 00:19:47;;;;;;;23.40;7.50;;;;;;;4.41;100.00;102161.52;110187;1280;22857;-75
2023/12/16 00:22:38;;;;;;;22.40;9.10;;;;;;;4.41;100.00;102156.85;110189;1280;22176;-76
2023/12/16 00:25:29;;;;;;;29.10;10.30;;;;;;;4.42;100.00;102163.10;110172;1276;22102;-76
2023/12/16 00:28:20;;;;;;;30.30;10.70;;;;;;;4.43;100.00;102165.09;110173;1276;22195;-75
2023/12/16 00:31:11;;;;;;;27.50;10.10;;;;;;;4.44;100.00;102166.83;110133;1280;22167;-75
2023/12/16 00:34:02;;;;;;;25.00;9.00;;;;;;;4.45;100.00;102162.56;110197;1272;22301;-76
2023/12/16 00:36:52;;;;;;;23.60;9.30;;;;;;;4.45;100.00;102160.26;110196;1279;22188;-78
2023/12/16 00:39:43;;;;;;;25.80;9.10;;;;;;;4.47;100.00;102169.20;110190;1279;22157;-76
2023/12/16 00:42:34;;;;;;;24.30;8.50;;;;;;;4.46;100.00;102173.55;110163;1273;22217;-76
2023/12/16 00:45:25;;;;;;;21.90;8.40;;;;;;;4.46;100.00;102174.49;110169;1276;22125;-76
2023/12/16 00:48:16;;;;;;;24.70;8.70;;;;;;;4.46;100.00;102175.67;110157;1276;22107;-76
2023/12/16 00:51:07;;;;;;;23.40;9.70;;;;;;;4.46;100.00;102178.52;110171;1273;22139;-75
2023/12/16 00:53:58;;;;;;;22.60;8.60;;;;;;;4.46;100.00;102175.85;110182;1273;22956;-77
2023/12/16 00:56:49;;;;;;;20.80;7.90;;;;;;;4.47;100.00;102176.47;110190;1279;22176;-77
2023/12/16 00:59:40;;;;;;;26.80;8.90;;;;;;;4.47;100.00;102176.63;110161;1276;22170;-75
2023/12/16 01:02:31;;;;;;;26.60;8.70;;;;;;;4.48;100.00;102178.13;110182;1271;22941;-76
2023/12/16 01:05:20;;;;;;;;;;;;;;;4.50;100.00;102181.70;110189;1273;22865;-76
2023/12/16 01:08:11;;;;;;;21.80;7.70;;;;;;;4.50;100.00;102184.30;110183;1279;22302;-76
2023/12/16 01:11:02;;;;;;;24.60;8.50;;;;;;;4.50;100.00;102183.44;110126;1280;22111;-78
2023/12/16 01:13:53;;;;;;;24.50;7.80;;;;;;;4.51;100.00;102183.20;110205;1260;22931;-77
2023/12/16 01:16:43;;;;;;;25.00;9.00;;;;;;;4.52;100.00;102183.83;110199;1280;22249;-77
2023/12/16 01:19:34;;;;;;;27.50;8.40;;;;;;;4.53;100.00;102182.96;110188;1280;22211;-81
2023/12/16 01:22:25;;;;;;;23.70;8.30;;;;;;;4.55;100.00;102178.77;110182;1276;22193;-76
2023/12/16 01:25:16;;;;;;;21.30;6.80;;;;;;;4.56;100.00;102186.85;110177;1276;22543;-75
2023/12/16 01:28:07;;;;;;;24.60;8.50;;;;;;;4.57;100.00;102189.85;110190;1274;22516;-79
2023/12/16 01:30:58;;;;;;;25.40;8.10;;;;;;;4.58;100.00;102191.83;110191;1275;22262;-76
2023/12/16 01:33:48;;;;;;;24.20;8.50;;;;;;;4.58;100.00;102187.80;110189;1280;23047;-77
2023/12/16 01:36:39;;;;;;;21.50;7.80;;;;;;;4.60;100.00;102181.95;110188;1279;22198;-76
2023/12/16 01:39:30;;;;;;;24.70;9.30;;;;;;;4.61;100.00;102181.02;110158;1270;23026;-76
2023/12/16 01:42:22;;;;;;;20.60;7.00;;;;;;;4.61;100.00;102184.27;110162;1274;22329;-75
2023/12/16 01:45:13;;;;;;;29.20;9.10;;;;;;;4.62;100.00;102187.57;110178;1276;22273;-79
2023/12/16 01:48:04;;;;;;;20.60;7.60;;;;;;;4.63;100.00;102179.83;110174;1277;22230;-77
2023/12/16 01:50:56;;;;;;;21.30;7.70;;;;;;;4.63;100.00;102171.54;110209;1274;22906;-77
2023/12/16 01:53:47;;;;;;;25.70;7.80;;;;;;;4.64;100.00;102171.54;110201;1280;22343;-76
2023/12/16 01:56:39;;;;;;;23.70;8.00;;;;;;;4.65;100.00;102170.52;110211;1273;23013;-76
2023/12/16 01:59:30;;;;;;;27.50;7.80;;;;;;;4.66;100.00;102170.59;110119;1273;22179;-76
2023/12/16 02:02:22;;;;;;;28.10;7.40;;;;;;;4.67;100.00;102174.46;110167;1273;23027;-76
2023/12/16 02:05:12;;;;;;;28.10;7.80;;;;;;;4.68;100.00;102176.45;110192;1279;23093;-76
2023/12/16 02:08:03;;;;;;;23.20;7.20;;;;;;;4.69;100.00;102180.80;110218;1277;22069;-75
2023/12/16 02:10:54;;;;;;;28.20;9.10;;;;;;;4.69;100.00;102181.81;110199;1280;22829;-78
2023/12/16 02:13:45;;;;;;;23.50;8.20;;;;;;;4.70;100.00;102195.56;110198;1280;22213;-76
2023/12/16 02:16:37;;;;;;;22.80;8.20;;;;;;;4.71;100.00;102203.09;110211;1273;22209;-77
2023/12/16 02:19:29;;;;;;;26.80;7.20;;;;;;;4.70;100.00;102201.82;110188;1270;22753;-76
2023/12/16 02:22:20;;;;;;;24.00;7.40;;;;;;;4.71;100.00;102202.30;110187;1273;23041;-76
2023/12/16 02:25:12;;;;;;;20.20;6.50;;;;;;;4.71;100.00;102205.63;110196;1273;22220;-76
2023/12/16 02:28:04;;;;;;;22.10;6.90;;;;;;;4.71;100.00;102199.54;110190;1280;22154;-77
2023/12/16 02:30:54;;;;;;;21.50;6.30;;;;;;;4.71;100.00;102190.29;110182;1273;22912;-77
2023/12/16 02:33:45;;;;;;;16.40;5.20;;;;;;;4.72;100.00;102192.65;110204;1274;22800;-76
2023/12/16 02:36:36;;;;;;;23.10;6.10;;;;;;;4.71;100.00;102200.09;110200;1279;22084;-76
2023/12/16 02:39:27;;;;;;;20.60;5.70;;;;;;;4.71;100.00;102208.23;110199;1273;22115;-75
2023/12/16 02:42:18;;;;;;;21.40;6.40;;;;;;;4.70;100.00;102204.90;110280;1274;22344;-77
2023/12/16 02:45:10;;;;;;;21.10;5.90;;;;;;;4.69;100.00;102202.30;110321;1276;22471;-75
2023/12/16 02:48:01;;;;;;;22.70;5.50;;;;;;;4.69;100.00;102203.73;110211;1279;22154;-76
2023/12/16 02:50:52;;;;;;;22.90;6.70;;;;;;;4.69;100.00;102191.70;110264;1276;22250;-74
2023/12/16 02:53:43;;;;;;;20.60;7.00;;;;;;;4.69;100.00;102189.65;110282;1276;22475;-77
2023/12/16 02:56:34;;;;;;;22.90;7.10;;;;;;;4.69;100.00;102197.63;110262;1279;22238;-75
2023/12/16 02:59:25;;;;;;;23.00;6.80;;;;;;;4.69;100.00;102195.81;110221;1271;22469;-77
2023/12/16 03:02:14;;;;;;;;;;;;;;;4.69;100.00;102189.88;110289;1271;22527;-76
2023/12/16 03:05:06;;;;;;;28.20;7.60;;;;;;;4.69;100.00;102190.75;110276;1279;22244;-78
2023/12/16 03:07:56;;;;;;;25.60;8.80;;;;;;;4.69;100.00;102192.81;110268;1273;22202;-76
2023/12/16 03:10:45;;;;;;;;;;;;;;;4.70;100.00;102187.74;110290;1279;22621;-75
2023/12/16 03:13:36;;;;;;;25.50;8.30;;;;;;;4.69;100.00;102188.06;110262;1267;23030;-77
2023/12/16 03:16:27;;;;;;;22.80;7.50;;;;;;;4.70;100.00;102192.17;110274;1274;22279;-77
2023/12/16 03:19:18;;;;;;;20.20;7.20;;;;;;;4.70;100.00;102195.02;110275;1273;22182;-77
2023/12/16 03:22:09;;;;;;;25.40;7.30;;;;;;;4.71;100.00;102192.02;110264;1274;22624;-75
2023/12/16 03:25:00;;;;;;;24.20;8.10;;;;;;;4.72;100.00;102193.36;110270;1274;22926;-75
2023/12/16 03:27:51;;;;;;;22.10;7.30;;;;;;;4.73;100.00;102197.88;110284;1274;23008;-76
2023/12/16 03:30:43;;;;;;;27.80;9.20;;;;;;;4.74;100.00;102195.04;110260;1274;22170;-76
2023/12/16 03:33:34;;;;;;;27.50;8.60;;;;;;;4.75;100.00;102191.80;110226;1277;22969;-76
2023/12/16 03:36:25;;;;;;;24.00;8.60;;;;;;;4.75;100.00;102191.87;110270;1274;22121;-78
2023/12/16 03:39:16;;;;;;;25.10;8.40;;;;;;;4.76;100.00;102203.41;110295;1271;23516;-77
2023/12/16 03:42:07;;;;;;;22.90;8.60;;;;;;;4.76;100.00;102212.59;110274;1274;22950;-75
2023/12/16 03:44:58;;;;;;;25.40;8.80;;;;;;;4.77;100.00;102213.14;110211;1275;22167;-76
2023/12/16 03:47:49;;;;;;;24.50;8.80;;;;;;;4.78;100.00;102218.36;110239;1277;22288;-77
2023/12/16 03:50:41;;;;;;;28.40;8.60;;;;;;;4.79;100.00;102218.28;110285;1276;22131;-77
2023/12/16 03:53:31;;;;;;;25.60;8.80;;;;;;;4.80;100.00;102222.86;110277;1271;22098;-76
2023/12/16 03:56:20;;;;;;;;;;;;;;;4.82;100.00;102222.09;110222;1271;23024;-75
2023/12/16 03:59:11;;;;;;;24.20;8.70;;;;;;;4.81;100.00;102224.14;110272;1271;22304;-83
2023/12/16 04:02:02;;;;;;;28.10;8.50;;;;;;;4.83;100.00;102222.65;110299;1279;23012;-76
2023/12/16 04:04:53;;;;;;;23.00;7.80;;;;;;;4.84;100.00;102231.27;110274;1279;22116;-75
2023/12/16 04:07:44;;;;;;;28.00;8.20;;;;;;;4.86;100.00;102226.14;110265;1279;22847;-78
2023/12/16 04:10:35;;;;;;;26.00;9.10;;;;;;;4.88;100.00;102229.05;110279;1279;22078;-76
2023/12/16 04:13:26;;;;;;;28.00;8.80;;;;;;;4.89;100.00;102224.48;110266;1277;22211;-77
2023/12/16 04:16:17;;;;;;;27.70;8.40;;;;;;;4.90;100.00;102228.90;110270;1276;22256;-75
2023/12/16 04:19:08;;;;;;;24.20;8.50;;;;;;;4.91;100.00;102224.86;110263;1275;22271;-79
2023/12/16 04:21:59;;;;;;;30.30;9.20;;;;;;;4.92;100.00;102225.42;110250;1276;22117;-76
2023/12/16 04:24:57;;;;;;;34.70;9.40;;;;;;;4.93;100.00;102224.73;110258;1276;22276;-76
2023/12/16 04:27:48;;;;;;;27.10;9.10;;;;;;;4.94;100.00;102222.59;110298;1277;22455;-76
2023/12/16 04:30:39;;;;;;;20.00;6.90;;;;;;;4.96;100.00;102221.25;110293;1274;23197;-75
2023/12/16 04:33:30;;;;;;;24.60;8.10;;;;;;;4.97;100.00;102220.29;110266;1276;22268;-77
2023/12/16 04:36:20;;;;;;;26.20;6.60;;;;;;;4.98;100.00;102226.15;110266;1267;22243;-77
2023/12/16 04:39:11;;;;;;;31.20;9.60;;;;;;;4.99;100.00;102238.72;110230;1274;22877;-82
2023/12/16 04:42:02;;;;;;;26.10;8.40;;;;;;;5.02;100.00;102253.75;110298;1274;23380;-77
2023/12/16 04:44:54;;;;;;;30.90;10.00;;;;;;;5.03;100.00;102253.21;110206;1277;22260;-74
2023/12/16 04:47:45;;;;;;;27.50;8.50;;;;;;;5.05;100.00;102261.74;110305;1277;22233;-77
2023/12/16 04:50:35;;;;;;;21.90;7.10;;;;;;;5.05;100.00;102256.84;110209;1277;23066;-76
2023/12/16 04:53:26;;;;;;;26.90;7.90;;;;;;;5.07;100.00;102261.52;110296;1271;22716;-77
2023/12/16 04:56:17;;;;;;;20.80;7.50;;;;;;;5.08;100.00;102255.04;110216;1269;22202;-77
2023/12/16 04:59:08;;;;;;;21.40;7.80;;;;;;;5.10;100.00;102254.64;110298;1274;22136;-76
2023/12/16 05:01:59;;;;;;;24.00;6.80;;;;;;;5.09;100.00;102254.48;110290;1279;22123;-74
2023/12/16 05:04:50;;;;;;;22.90;7.40;;;;;;;5.10;100.00;102257.09;110328;1279;22199;-75
2023/12/16 05:07:41;;;;;;;25.30;8.30;;;;;;;5.11;100.00;102262.39;110161;1279;22188;-77
2023/12/16 05:10:32;;;;;;;22.00;7.20;;;;;;;5.11;100.00;102259.15;110295;1279;22684;-75
2023/12/16 05:13:23;;;;;;;23.30;6.90;;;;;;;5.12;100.00;102265.24;110278;1274;22185;-76
2023/12/16 05:16:19;;;;;;;33.10;8.20;;;;;;;5.13;100.00;102275.45;110297;1276;22159;-76
2023/12/16 05:19:10;;;;;;;25.90;7.80;;;;;;;5.13;100.00;102274.81;110297;1273;22062;-76
2023/12/16 05:22:01;;;;;;;20.60;6.50;;;;;;;5.13;100.00;102269.83;110197;1277;22327;-75
2023/12/16 05:24:52;;;;;;;23.20;7.30;;;;;;;5.13;100.00;102257.17;110258;1279;22231;-77
2023/12/16 05:27:43;;;;;;;24.90;7.50;;;;;;;5.13;100.00;102252.66;110279;1279;22212;-76
2023/12/16 05:30:34;;;;;;;24.20;7.20;;;;;;;5.14;100.00;102248.56;110228;1279;23013;-78
2023/12/16 05:33:25;;;;;;;22.20;6.30;;;;;;;5.14;100.00;102250.62;110300;1275;22190;-76
2023/12/16 05:36:16;;;;;;;23.30;7.40;;;;;;;5.14;100.00;102254.09;110272;1271;22244;-78
2023/12/16 05:39:07;;;;;;;24.40;6.60;;;;;;;5.14;100.00;102257.57;110289;1276;22195;-81
2023/12/16 05:41:58;;;;;;;20.50;6.70;;;;;;;5.15;100.00;102256.40;110291;1269;22190;-78
2023/12/16 05:44:49;;;;;;;26.50;7.30;;;;;;;5.16;100.00;102262.48;110311;1276;22258;-77
2023/12/16 05:47:40;;;;;;;21.60;5.90;;;;;;;5.17;100.00;102264.38;110276;1277;22246;-75
2023/12/16 05:50:31;;;;;;;19.20;7.10;;;;;;;5.17;100.00;102277.99;110284;1276;22269;-77
2023/12/16 05:53:22;;;;;;;23.70;6.60;;;;;;;5.18;100.00;102283.92;110302;1279;22281;-75
2023/12/16 05:56:14;;;;;;;24.40;7.40;;;;;;;5.19;100.00;102282.11;110124;1271;22207;-75
2023/12/16 05:59:05;;;;;;;21.30;7.20;;;;;;;5.20;100.00;102285.04;110311;1279;22130;-80
2023/12/16 06:01:56;;;;;;;28.10;8.60;;;;;;;5.19;100.00;102285.67;110257;1279;22619;-76
2023/12/16 06:04:45;;;;;;;;;;;;;;;5.21;100.00;102288.45;110205;1279;22316;-77
2023/12/16 06:07:38;;;;;;;23.50;8.80;;;;;;;5.21;100.00;102286.86;110239;1279;22943;-76
2023/12/16 06:10:29;;;;;;;23.40;8.80;;;;;;;5.22;100.00;102289.06;110288;1279;23045;-77
2023/12/16 06:13:18;;;;;;;;;;;;;;;5.22;100.00;102283.77;110284;1273;23074;-75
2023/12/16 06:16:14;;;;;;;20.50;6.80;;;;;;;5.22;100.00;102280.77;110250;1267;23100;-75
2023/12/16 06:19:05;;;;;;;26.70;8.60;;;;;;;5.23;100.00;102278.16;110285;1267;22176;-75
2023/12/16 06:21:56;;;;;;;21.30;7.20;;;;;;;5.23;100.00;102276.11;110292;1276;22238;-74
2023/12/16 06:24:47;;;;;;;26.30;8.20;;;;;;;5.24;100.00;102282.67;110260;1276;22224;-75
2023/12/16 06:27:40;;;;;;;24.80;7.90;;;;;;;5.26;100.00;102281.56;110302;1276;22133;-75
2023/12/16 06:30:31;;;;;;;24.40;8.20;;;;;;;5.27;100.00;102286.55;110254;1276;22173;-75
2023/12/16 06:33:23;;;;;;;23.90;7.70;;;;;;;5.28;100.00;102298.96;110171;1277;22095;-77
2023/12/16 06:36:14;;;;;;;25.00;8.20;;;;;;;5.29;100.00;102297.23;110257;1279;22157;-75
2023/12/16 06:39:05;;;;;;;25.60;8.20;;;;;;;5.31;100.00;102299.45;110269;1277;22257;-76
2023/12/16 06:41:56;;;;;;;22.60;7.30;;;;;;;5.33;100.00;102297.41;110266;1277;22828;-75
2023/12/16 06:44:47;;;;;;;23.70;7.60;;;;;;;5.35;100.00;102293.67;110273;1276;22172;-76
2023/12/16 06:47:40;;;;;;;26.10;7.50;;;;;;;5.36;100.00;102290.84;110280;1277;22312;-75
2023/12/16 06:50:31;;;;;;;23.10;7.70;;;;;;;5.37;100.00;102295.05;110274;1277;22984;-76
2023/12/16 06:53:22;;;;;;;28.90;8.60;;;;;;;5.38;100.00;102295.98;110276;1271;22326;-76
2023/12/16 06:56:13;;;;;;;25.00;8.70;;;;;;;5.40;100.00;102307.62;110203;1271;22273;-76
2023/12/16 06:59:04;;;;;;;24.60;8.20;;;;;;;5.42;100.00;102311.98;110282;1264;22246;-79
2023/12/16 07:01:55;;;;;;;23.90;6.80;;;;;;;5.43;100.00;102316.80;110259;1277;22958;-77
2023/12/16 07:04:46;;;;;;;22.90;7.70;;;;;;;5.42;100.00;102314.66;110316;1279;22247;-76
2023/12/16 07:07:38;;;;;;;27.30;8.20;;;;;;;5.42;100.00;102311.98;110200;1280;22581;-75
2023/12/16 07:10:29;;;;;;;23.70;6.40;;;;;;;5.42;100.00;102318.54;110102;1277;22596;-75
2023/12/16 07:13:21;;;;;;;24.40;8.80;;;;;;;5.40;100.00;102321.48;107488;1276;22556;-75
2023/12/16 07:16:14;;;;;;;24.30;8.10;;;;;;;5.38;100.00;102325.34;107467;1274;24275;-79
2023/12/16 07:19:05;;;;;;;25.20;8.30;;;;;;;5.37;100.00;102325.02;107484;1279;22564;-76
2023/12/16 07:21:56;;;;;;;22.50;8.80;;;;;;;5.36;100.00;102323.52;107274;1279;23787;-74
2023/12/16 07:24:47;;;;;;;28.40;8.70;;;;;;;5.36;100.00;102326.61;107522;1279;22532;-77
2023/12/16 07:27:39;;;;;;;25.00;9.20;;;;;;;5.35;100.00;102325.73;107459;1277;22614;-78
2023/12/16 07:30:30;;;;;;;28.80;9.90;;;;;;;5.33;100.00;102331.27;107431;1276;22549;-77
2023/12/16 07:33:21;;;;;;;27.90;10.20;;;;;;;5.32;100.00;102324.21;107482;1279;24195;-76
2023/12/16 07:36:12;;;;;;;22.20;7.50;;;;;;;5.32;100.00;102322.64;107408;1276;24251;-80
2023/12/16 07:39:03;;;;;;;26.30;10.20;;;;;;;5.31;100.00;102324.62;107529;1277;25381;-75
2023/12/16 07:41:55;;;;;;;24.10;9.70;;;;;;;5.31;100.00;102328.10;107467;1277;23876;-76
2023/12/16 07:44:46;;;;;;;28.00;9.90;;;;;;;5.32;100.00;102324.37;107516;1274;25279;-77
2023/12/16 07:47:38;;;;;;;32.50;10.30;;;;;;;5.33;100.00;102333.33;107333;1273;22535;-76
2023/12/16 07:50:29;;;;;;;23.70;8.50;;;;;;;5.34;100.00;102338.56;107518;1278;22644;-76
2023/12/16 07:53:23;;;;;;;27.60;9.60;;;;;;;5.34;100.00;102341.40;107293;1271;23012;-77
2023/12/16 07:56:24;;;;;;;25.20;8.20;;;;;;;5.35;100.00;102339.82;110137;1279;23000;-77
2023/12/16 07:59:15;;;;;;;30.00;9.60;;;;;;;5.35;100.00;102340.85;110283;1272;22294;-77
2023/12/16 08:02:08;;;;;;;26.30;9.10;;;;;;;5.36;100.00;102352.08;110288;1271;22396;-77
2023/12/16 08:04:59;;;;;;;32.20;10.70;;;;;;;5.37;100.00;102354.08;110277;1279;22103;-77
2023/12/16 08:07:51;;;;;;;29.10;9.60;;;;;;;5.38;100.00;102356.59;110229;1279;22156;-77
2023/12/16 08:10:42;;;;;;;31.40;10.40;;;;;;;5.41;100.00;102360.40;110280;1279;22965;-80
2023/12/16 08:13:33;;;;;;;29.70;9.90;;;;;;;5.44;100.00;102369.11;110230;1277;22854;-78
2023/12/16 08:16:25;;;;;;;25.50;8.80;;;;;;;5.47;100.00;102373.23;110228;1277;22184;-79
2023/12/16 08:19:16;;;;;;;29.40;10.20;;;;;;;5.48;100.00;102366.67;110229;1274;22147;-79
2023/12/16 08:22:06;;;;;;;30.40;9.70;;;;;;;5.51;100.00;102362.95;110216;1271;22376;-77
2023/12/16 08:24:59;;;;;;;24.80;9.20;;;;;;;5.53;100.00;102358.67;110204;1276;22221;-77
2023/12/16 08:27:50;;;;;;;26.20;9.50;;;;;;;5.55;100.00;102348.48;110231;1274;22133;-79
2023/12/16 08:30:43;;;;;;;26.90;9.10;;;;;;;5.55;100.00;102347.84;110241;1276;22087;-78
2023/12/16 08:33:35;;;;;;;31.00;8.80;;;;;;;5.55;100.00;102348.15;110188;1277;22143;-80
2023/12/16 08:36:25;;;;;;;30.40;8.80;;;;;;;5.56;100.00;102347.45;110229;1274;22144;-77
2023/12/16 08:39:17;;;;;;;25.40;9.80;;;;;;;5.56;100.00;102346.11;110244;1267;22158;-78
2023/12/16 08:42:08;;;;;;;26.20;9.30;;;;;;;5.57;100.00;102348.32;110188;1280;22178;-77
2023/12/16 08:44:59;;;;;;;25.70;8.30;;;;;;;5.60;100.00;102355.61;110225;1277;22062;-80
2023/12/16 08:47:49;;;;;;;25.40;8.90;;;;;;;5.62;100.00;102364.56;110204;1273;23086;-77
2023/12/16 08:50:40;;;;;;;29.40;10.50;;;;;;;5.62;100.00;102360.05;110189;1265;22948;-77
2023/12/16 08:53:31;;;;;;;29.80;8.80;;;;;;;5.63;100.00;102356.00;110202;1279;22573;-79
2023/12/16 08:56:23;;;;;;;29.10;9.30;;;;;;;5.63;100.00;102353.63;110246;1271;22320;-78
2023/12/16 08:59:14;;;;;;;29.20;9.20;;;;;;;5.65;100.00;102361.63;110207;1273;22310;-76
2023/12/16 09:02:06;;;;;;;31.20;11.20;;;;;;;5.66;100.00;102366.70;110154;1280;22215;-79
2023/12/16 09:04:57;;;;;;;31.00;10.20;;;;;;;5.68;100.00;102374.38;110205;1280;22079;-79
2023/12/16 09:07:48;;;;;;;27.20;8.40;;;;;;;5.72;100.00;102373.13;110148;1281;22115;-78
2023/12/16 09:10:39;;;;;;;33.00;11.20;;;;;;;5.75;100.00;102369.40;110152;1281;22190;-78
2023/12/16 09:13:30;;;;;;;32.70;10.40;;;;;;;5.78;100.00;102370.04;110194;1279;22887;-79
2023/12/16 09:16:21;;;;;;;28.00;9.40;;;;;;;5.80;100.00;102365.52;110194;1277;22358;-79
2023/12/16 09:19:11;;;;;;;32.30;10.00;;;;;;;5.83;100.00;102365.44;110180;1279;22140;-76
2023/12/16 09:22:02;;;;;;;27.30;9.50;;;;;;;5.84;100.00;102372.27;110285;1277;23031;-76
2023/12/16 09:24:53;;;;;;;30.40;9.60;;;;;;;5.86;100.00;102376.48;110188;1279;22929;-79
2023/12/16 09:27:44;;;;;;;23.40;7.20;;;;;;;5.86;100.00;102374.98;110243;1277;22093;-77
2023/12/16 09:30:33;;;;;;;;;;;;;;;5.87;100.00;102374.02;110239;1276;22832;-79
2023/12/16 09:33:24;;;;;;;26.40;9.00;;;;;;;5.88;100.00;102372.68;110179;1276;22555;-78
2023/12/16 09:36:15;;;;;;;30.70;9.80;;;;;;;5.90;100.00;102372.86;110198;1273;22918;-76
2023/12/16 09:39:09;;;;;;;28.20;10.50;;;;;;;5.91;100.00;102361.92;110186;1274;22105;-77
2023/12/16 09:42:01;;;;;;;23.40;9.50;;;;;;;5.94;100.00;102359.70;110229;1277;22145;-78
2023/12/16 09:44:57;;;;;;;26.40;9.40;;;;;;;5.97;100.00;102358.43;110252;1267;22150;-78
2023/12/16 09:47:49;;;;;;;33.50;9.80;;;;;;;5.99;100.00;102360.33;110213;1277;22189;-77
2023/12/16 09:50:42;;;;;;;29.10;9.90;;;;;;;6.01;100.00;102363.82;110242;1279;22085;-77
2023/12/16 09:53:33;;;;;;;28.40;9.40;;;;;;;6.03;100.00;102364.36;110226;1279;22208;-78
2023/12/16 09:56:24;;;;;;;25.80;8.40;;;;;;;6.04;100.00;102366.59;110248;1270;22102;-78
2023/12/16 09:59:16;;;;;;;25.80;9.20;;;;;;;6.05;100.00;102367.22;110197;1274;22301;-77
2023/12/16 10:02:16;;;;;;;31.40;8.50;;;;;;;6.06;100.00;102365.88;110203;1280;22151;-79
2023/12/16 10:05:08;;;;;;;24.60;8.60;;;;;;;6.07;100.00;102361.03;110153;1280;22148;-77
2023/12/16 10:08:05;;;;;;;32.00;9.40;;;;;;;6.10;100.00;102362.94;110174;1281;22133;-75
2023/12/16 10:11:02;;;;;;;24.10;8.90;;;;;;;6.12;100.00;102363.25;110162;1281;22118;-75
2023/12/16 10:14:00;;;;;;;32.20;9.90;;;;;;;6.15;100.00;102363.41;110166;1281;22812;-75
2023/12/16 10:17:01;;;;;;;24.60;7.80;;;;;;;6.19;100.00;102354.38;110202;1280;22113;-75
2023/12/16 10:19:52;;;;;;;23.60;8.40;;;;;;;6.22;100.00;102355.16;110160;1281;22157;-75
2023/12/16 10:22:43;;;;;;;36.00;9.90;;;;;;;6.25;100.00;102352.14;110207;1280;22165;-77
2023/12/16 10:25:34;;;;;;;25.00;8.50;;;;;;;6.28;100.00;102352.79;110187;1280;22227;-76
2023/12/16 10:28:27;;;;;;;32.10;8.40;;;;;;;6.30;100.00;102349.52;110174;1279;22998;-78
2023/12/16 10:31:18;;;;;;;25.00;7.20;;;;;;;6.31;100.00;102348.65;110282;1279;22930;-76
2023/12/16 10:34:09;;;;;;;26.10;8.00;;;;;;;6.33;100.00;102340.88;110150;1279;130195;-76
2023/12/16 10:37:09;;;;;;;28.10;7.70;;;;;;;6.36;100.00;102336.75;110196;1277;22115;-77
2023/12/16 10:39:59;;;;;;;26.20;6.40;;;;;;;6.39;100.00;102343.48;110237;1279;22173;-75
2023/12/16 10:42:48;;;;;;;;;;;;;;;6.42;100.00;102344.59;110153;1280;23160;-76
2023/12/16 10:45:42;;;;;;;22.10;5.90;;;;;;;6.43;100.00;102337.68;110200;1276;22873;-76
2023/12/16 10:48:35;;;;;;;21.90;6.40;;;;;;;6.46;100.00;102339.42;110202;1276;22152;-78
2023/12/16 10:51:27;;;;;;;34.90;7.60;;;;;;;6.49;100.00;102339.41;110245;1274;22405;-76
2023/12/16 10:54:26;;;;;;;29.40;7.50;;;;;;;6.54;100.00;102338.84;110257;1279;22173;-77
2023/12/16 10:57:24;;;;;;;27.80;8.00;;;;;;;6.59;100.00;102333.83;110251;1279;22209;-76
2023/12/16 11:00:23;;;;;;;26.10;6.90;;;;;;;6.63;100.00;102339.05;110246;1274;22147;-76
2023/12/16 11:03:23;;;;;;;23.00;5.80;;;;;;;6.65;100.00;102335.24;110236;1276;22277;-75
2023/12/16 11:06:21;;;;;;;21.60;5.50;;;;;;;6.66;100.00;102337.78;110192;1279;22883;-75
2023/12/16 11:09:13;;;;;;;20.20;5.90;;;;;;;6.66;100.00;102337.47;110217;1273;22087;-78
2023/12/16 11:12:06;;;;;;;24.40;5.90;;;;;;;6.68;100.00;102339.28;110255;1279;22944;-76
2023/12/16 11:14:56;;;;;;;29.60;6.60;;;;;;;6.71;100.00;102341.64;110205;1273;22209;-75
2023/12/16 11:17:55;;;;;;;21.40;6.60;;;;;;;6.74;100.00;102339.18;110200;1276;22292;-76
2023/12/16 11:20:49;;;;;;;23.00;5.60;;;;;;;6.77;100.00;102339.48;110183;1274;23157;-77
2023/12/16 11:23:47;;;;;;;20.10;5.90;;;;;;;6.79;100.00;102330.74;110253;1276;22581;-75
2023/12/16 11:26:38;;;;;;;22.70;5.30;;;;;;;6.81;100.00;102326.21;110201;1276;22892;-76
2023/12/16 11:29:32;;;;;;;19.70;5.00;;;;;;;6.84;100.00;102322.64;110192;1273;22119;-77
2023/12/16 11:32:22;;;;;;;19.30;5.10;;;;;;;6.87;100.00;102315.96;110196;1277;22313;-78
2023/12/16 11:35:13;;;;;;;19.30;5.50;;;;;;;6.89;100.00;102313.65;110212;1273;22272;-75
2023/12/16 11:38:05;;;;;;;21.60;6.20;;;;;;;6.92;100.00;102304.52;110197;1280;22160;-76
2023/12/16 11:40:58;;;;;;;22.50;5.20;;;;;;;6.92;100.00;102303.41;110175;1281;22153;-77
2023/12/16 11:43:55;;;;;;;22.70;5.40;;;;;;;6.94;100.00;102301.58;110173;1281;22902;-76
2023/12/16 11:46:46;;;;;;;23.50;4.60;;;;;;;6.98;100.00;102294.56;110144;1281;22181;-77
2023/12/16 11:49:37;;;;;;;17.00;4.30;;;;;;;7.02;100.00;102294.40;110278;1279;22128;-76
2023/12/16 11:52:28;;;;;;;22.30;4.10;;;;;;;7.05;100.00;102296.02;110272;1279;22114;-75
2023/12/16 11:55:17;;;;;;;;;;;;;;;7.08;100.00;102298.40;110305;1276;22320;-76
2023/12/16 11:58:09;;;;;;;24.20;3.50;;;;;;;7.10;100.00;102294.89;110195;1280;22158;-76
2023/12/16 12:01:00;;;;;;;13.80;3.00;;;;;;;7.11;100.00;102286.95;110197;1270;22196;-76
2023/12/16 12:03:51;;;;;;;22.60;3.60;;;;;;;7.12;99.89;102288.61;110253;1276;22333;-75
2023/12/16 12:06:43;;;;;;;18.00;3.90;;;;;;;7.11;99.94;102292.91;110218;1273;22230;-76
2023/12/16 12:09:34;;;;;;;17.30;4.00;;;;;;;7.11;99.62;102283.86;110250;1271;22235;-76
2023/12/16 12:12:24;;;;;;;17.60;3.00;;;;;;;7.12;99.69;102277.34;110288;1276;22085;-75
2023/12/16 12:15:15;;;;;;;19.10;3.60;;;;;;;7.12;99.32;102274.55;110279;1277;22240;-77
2023/12/16 12:18:07;;;;;;;18.70;2.90;;;;;;;7.12;99.04;102275.20;110283;1279;22163;-75
2023/12/16 12:20:58;;;;;;;17.90;3.80;;;;;;;7.11;99.07;102275.92;110278;1276;22235;-77
2023/12/16 12:23:49;;;;;;;14.60;2.90;;;;;;;7.12;98.64;102268.92;110247;1276;22071;-76
2023/12/16 12:26:41;;;;;;;16.30;3.40;;;;;;;7.12;98.91;102264.09;110170;1267;22242;-76
2023/12/16 12:29:57;;;;;;;19.60;4.20;;;;;;;7.13;98.23;102271.07;110193;1279;22248;-77
2023/12/16 12:32:48;;;;;;;14.00;2.30;;;;;;;7.14;98.15;102260.98;110165;1276;22175;-76
2023/12/16 12:35:39;;;;;;;14.10;3.30;;;;;;;7.16;98.49;102258.83;110224;1274;23218;-77
2023/12/16 12:38:30;;;;;;;13.80;2.70;;;;;;;7.19;98.64;102254.60;110234;1273;22118;-76
2023/12/16 12:41:21;;;;;;;14.90;2.70;;;;;;;7.23;98.64;102248.30;110195;1273;22101;-75
2023/12/16 12:44:13;;;;;;;14.30;2.60;;;;;;;7.27;98.36;102243.76;110200;1279;22281;-76
2023/12/16 12:47:04;;;;;;;17.20;2.90;;;;;;;7.29;97.66;102238.48;110291;1279;22196;-77
2023/12/16 12:49:55;;;;;;;15.40;2.40;;;;;;;7.29;97.15;102241.59;110178;1281;22189;-76
2023/12/16 12:52:46;;;;;;;16.10;2.70;;;;;;;7.27;97.03;102242.00;110148;1281;22152;-76
2023/12/16 12:55:37;;;;;;;13.20;2.90;;;;;;;7.25;97.01;102248.93;110212;1280;22119;-76
2023/12/16 12:58:29;;;;;;;14.70;2.80;;;;;;;7.21;96.59;102249.66;110278;1279;22270;-76
2023/12/16 13:01:20;;;;;;;18.20;2.50;;;;;;;7.20;96.62;102251.83;110273;1274;22345;-76
2023/12/16 13:04:12;;;;;;;14.90;3.50;;;;;;;7.18;96.48;102253.50;110259;1277;22707;-77